Aiken, Texas
Current Conditions -  °F | °C
As of 6:15 PM on Friday 24 Oct 2014 (Local Time) from KPVW Reporting Station
Clear Clear  
Wind Chill: 27°   Ceiling: Unl
Heat Index: 27°   Visibility: 10mi
Dew Point:   Wind: 5mph
Humidity: 32%   Direction: 230°SW
Pressure: 30.1"   Gusts: NA
Location:  34.14°N, 101.53°W
Report Text: KPVW 242315Z AUTO 23004KT 10SM CLR 27/09 A3010 RMK AO2 T02670089
Loading
Personal Weather Stations






























Interactive Weather Map
Tropical Storm Tracking
New forecast layout! Learn more

10-Day Weather Forecast

Advertisements
Track Severe Weather on mobile